Time,TemperatureF,DewpointF,PressureIn,WindDirection,WindDirectionDegrees,WindSpeedMPH,WindSpeedGustMPH,Humidity,HourlyPrecipIn,Conditions,Clouds,dailyrainin,SoftwareType,DateUTC
2013-04-26 00:07:00,48.4,37.2,30.19,NNW,337,7.8,-999.0,65,-99.99,,,0.00,Acu-Link.com,2013-04-26 04:07:00,
2013-04-26 00:22:00,48.0,37.2,30.19,NNW,337,6.8,-999.0,66,-99.99,,,0.00,Acu-Link.com,2013-04-26 04:22:00,
2013-04-26 00:37:00,48.2,36.2,30.19,NNW,337,4.7,-999.0,63,-99.99,,,0.00,Acu-Link.com,2013-04-26 04:37:00,
2013-04-26 00:52:00,48.0,36.8,30.19,NNW,337,7.8,-999.0,65,-99.99,,,0.00,Acu-Link.com,2013-04-26 04:52:00,
2013-04-26 01:07:00,47.8,36.2,30.20,NNW,337,6.3,-999.0,64,-99.99,,,0.00,Acu-Link.com,2013-04-26 05:07:00,
2013-04-26 01:22:00,47.8,35.8,30.20,WNW,292,5.8,-999.0,63,-99.99,,,0.00,Acu-Link.com,2013-04-26 05:22:00,
2013-04-26 01:37:00,47.7,35.3,30.19,WNW,292,8.3,-999.0,62,-99.99,,,0.00,Acu-Link.com,2013-04-26 05:37:00,
2013-04-26 01:52:00,47.8,36.6,30.20,NNW,337,6.8,-999.0,65,-99.99,,,0.00,Acu-Link.com,2013-04-26 05:52:00,
2013-04-26 02:07:00,47.7,35.7,30.19,NNW,337,7.3,-999.0,63,-99.99,,,0.00,Acu-Link.com,2013-04-26 06:07:00,
2013-04-26 02:22:00,47.7,35.7,30.18,NNW,337,6.3,-999.0,63,-99.99,,,0.00,Acu-Link.com,2013-04-26 06:22:00,
2013-04-26 02:37:00,47.8,36.2,30.18,NW,315,8.9,-999.0,64,-99.99,,,0.00,Acu-Link.com,2013-04-26 06:37:00,
2013-04-26 02:53:00,47.8,36.2,30.18,NNW,337,6.8,-999.0,64,-99.99,,,0.00,Acu-Link.com,2013-04-26 06:53:00,
2013-04-26 03:08:00,47.7,36.9,30.17,NNW,337,6.3,-999.0,66,-99.99,,,0.00,Acu-Link.com,2013-04-26 07:08:00,
2013-04-26 03:23:00,48.0,38.3,30.18,NNW,337,6.8,-999.0,69,-99.99,,,0.00,Acu-Link.com,2013-04-26 07:23:00,
2013-04-26 03:38:00,46.8,37.2,30.17,NNW,337,9.9,-999.0,69,-99.99,,,0.00,Acu-Link.com,2013-04-26 07:38:00,
2013-04-26 03:54:00,46.0,36.0,30.18,NNW,337,7.8,-999.0,68,-99.99,,,0.00,Acu-Link.com,2013-04-26 07:54:00,
2013-04-26 04:09:00,46.2,35.9,30.18,NNW,337,7.3,-999.0,67,-99.99,,,0.00,Acu-Link.com,2013-04-26 08:09:00,
2013-04-26 04:24:00,46.2,36.2,30.17,NNW,337,7.3,-999.0,68,-99.99,,,0.00,Acu-Link.com,2013-04-26 08:24:00,
2013-04-26 04:39:00,45.7,36.8,30.18,NNW,337,5.3,-999.0,71,-99.99,,,0.00,Acu-Link.com,2013-04-26 08:39:00,
2013-04-26 04:54:00,45.7,35.4,30.18,NNW,337,6.3,-999.0,67,-99.99,,,0.00,Acu-Link.com,2013-04-26 08:54:00,
2013-04-26 05:09:00,45.7,35.8,30.18,NW,315,6.8,-999.0,68,-99.99,,,0.00,Acu-Link.com,2013-04-26 09:09:00,
2013-04-26 05:24:00,45.5,35.2,30.18,NNW,337,6.3,-999.0,67,-99.99,,,0.00,Acu-Link.com,2013-04-26 09:24:00,
2013-04-26 05:40:00,45.1,35.9,30.20,NNW,337,5.8,-999.0,70,-99.99,,,0.00,Acu-Link.com,2013-04-26 09:40:00,
2013-04-26 05:55:00,45.3,35.0,30.19,NNW,337,7.3,-999.0,67,-99.99,,,0.00,Acu-Link.com,2013-04-26 09:55:00,
2013-04-26 06:10:00,45.7,34.6,30.19,NNW,337,6.3,-999.0,65,-99.99,,,0.00,Acu-Link.com,2013-04-26 10:10:00,
2013-04-26 06:25:00,45.5,35.2,30.20,NNW,337,6.3,-999.0,67,-99.99,,,0.00,Acu-Link.com,2013-04-26 10:25:00,
2013-04-26 06:40:00,45.1,35.9,30.20,WNW,292,5.3,-999.0,70,-99.99,,,0.00,Acu-Link.com,2013-04-26 10:40:00,
2013-04-26 06:55:00,45.0,36.5,30.21,NNW,337,6.3,-999.0,72,-99.99,,,0.00,Acu-Link.com,2013-04-26 10:55:00,
2013-04-26 07:10:00,45.3,36.1,30.22,NNW,337,7.8,-999.0,70,-99.99,,,0.00,Acu-Link.com,2013-04-26 11:10:00,
2013-04-26 07:25:00,46.0,37.1,30.23,NNW,337,7.3,-999.0,71,-99.99,,,0.00,Acu-Link.com,2013-04-26 11:25:00,
2013-04-26 07:40:00,46.9,36.9,30.24,NW,315,6.8,-999.0,68,-99.99,,,0.00,Acu-Link.com,2013-04-26 11:40:00,
2013-04-26 07:55:00,48.4,36.4,30.24,West,270,5.8,-999.0,63,-99.99,,,0.00,Acu-Link.com,2013-04-26 11:55:00,
2013-04-26 08:10:00,50.9,38.8,30.25,NW,315,4.7,-999.0,63,-99.99,,,0.00,Acu-Link.com,2013-04-26 12:10:00,
2013-04-26 08:25:00,51.3,37.9,30.25,NNW,337,5.8,-999.0,60,-99.99,,,0.00,Acu-Link.com,2013-04-26 12:25:00,
2013-04-26 08:40:00,53.8,39.4,30.27,West,270,5.3,-999.0,58,-99.99,,,0.00,Acu-Link.com,2013-04-26 12:40:00,
2013-04-26 08:55:00,56.7,40.2,30.27,WNW,292,0.0,-999.0,54,-99.99,,,0.00,Acu-Link.com,2013-04-26 12:55:00,
2013-04-26 09:11:00,60.3,42.1,30.27,North,0,2.7,-999.0,51,-99.99,,,0.00,Acu-Link.com,2013-04-26 13:11:00,
2013-04-26 09:26:00,55.2,42.4,30.27,ESE,112,1.7,-999.0,62,-99.99,,,0.00,Acu-Link.com,2013-04-26 13:26:00,
2013-04-26 09:41:00,56.1,44.1,30.27,NW,315,2.7,-999.0,64,-99.99,,,0.00,Acu-Link.com,2013-04-26 13:41:00,
2013-04-26 09:57:00,56.3,42.6,30.28,West,270,3.2,-999.0,60,-99.99,,,0.00,Acu-Link.com,2013-04-26 13:57:00,
2013-04-26 10:12:00,59.0,41.9,30.28,ESE,112,5.8,-999.0,53,-99.99,,,0.00,Acu-Link.com,2013-04-26 14:12:00,
2013-04-26 10:27:00,59.7,43.5,30.27,SE,135,3.7,-999.0,55,-99.99,,,0.00,Acu-Link.com,2013-04-26 14:27:00,
2013-04-26 10:42:00,59.4,42.3,30.28,ESE,112,3.2,-999.0,53,-99.99,,,0.00,Acu-Link.com,2013-04-26 14:42:00,
2013-04-26 10:57:00,59.7,42.5,30.27,SE,135,4.2,-999.0,53,-99.99,,,0.00,Acu-Link.com,2013-04-26 14:57:00,
2013-04-26 11:12:00,59.9,42.7,30.28,ESE,112,4.7,-999.0,53,-99.99,,,0.00,Acu-Link.com,2013-04-26 15:12:00,
2013-04-26 11:27:00,61.0,41.7,30.29,ESE,112,3.7,-999.0,49,-99.99,,,0.00,Acu-Link.com,2013-04-26 15:27:00,
2013-04-26 11:43:00,61.2,42.9,30.28,ESE,112,4.7,-999.0,51,-99.99,,,0.00,Acu-Link.com,2013-04-26 15:43:00,
2013-04-26 11:58:00,62.8,44.4,30.27,SSE,157,4.7,-999.0,51,-99.99,,,0.00,Acu-Link.com,2013-04-26 15:58:00,
2013-04-26 12:13:00,61.3,43.0,30.28,ESE,112,4.2,-999.0,51,-99.99,,,0.00,Acu-Link.com,2013-04-26 16:13:00,
2013-04-26 12:28:00,64.0,44.5,30.27,SE,135,4.2,-999.0,49,-99.99,,,0.00,Acu-Link.com,2013-04-26 16:28:00,
2013-04-26 12:43:00,62.8,42.8,30.26,ESE,112,5.3,-999.0,48,-99.99,,,0.00,Acu-Link.com,2013-04-26 16:43:00,
2013-04-26 12:58:00,63.7,42.5,30.27,ESE,112,6.3,-999.0,46,-99.99,,,0.00,Acu-Link.com,2013-04-26 16:58:00,
2013-04-26 13:13:00,64.4,43.7,30.26,ESE,112,9.9,-999.0,47,-99.99,,,0.00,Acu-Link.com,2013-04-26 17:13:00,
2013-04-26 13:28:00,64.8,44.6,30.25,SE,135,4.2,-999.0,48,-99.99,,,0.00,Acu-Link.com,2013-04-26 17:28:00,
2013-04-26 13:43:00,63.3,42.7,30.26,SSE,157,6.8,-999.0,47,-99.99,,,0.00,Acu-Link.com,2013-04-26 17:43:00,
2013-04-26 13:59:00,65.1,44.9,30.25,SSE,157,4.7,-999.0,48,-99.99,,,0.00,Acu-Link.com,2013-04-26 17:59:00,
2013-04-26 14:14:00,65.8,43.9,30.24,ESE,112,11.9,-999.0,45,-99.99,,,0.00,Acu-Link.com,2013-04-26 18:14:00,
2013-04-26 14:29:00,65.3,43.4,30.26,SSE,157,4.2,-999.0,45,-99.99,,,0.00,Acu-Link.com,2013-04-26 18:29:00,
2013-04-26 14:44:00,65.8,43.9,30.25,ESE,112,7.8,-999.0,45,-99.99,,,0.00,Acu-Link.com,2013-04-26 18:44:00,
2013-04-26 15:00:00,67.8,45.1,30.23,ESE,112,6.3,-999.0,44,-99.99,,,0.00,Acu-Link.com,2013-04-26 19:00:00,
2013-04-26 15:15:00,66.6,44.6,30.23,SSE,157,6.8,-999.0,45,-99.99,,,0.00,Acu-Link.com,2013-04-26 19:15:00,
2013-04-26 15:30:00,65.7,43.2,30.22,East,90,2.7,-999.0,44,-99.99,,,0.00,Acu-Link.com,2013-04-26 19:30:00,
2013-04-26 15:45:00,66.2,44.8,30.21,South,180,3.7,-999.0,46,-99.99,,,0.00,Acu-Link.com,2013-04-26 19:45:00,
2013-04-26 16:01:00,63.0,44.1,30.21,SSE,157,4.7,-999.0,50,-99.99,,,0.00,Acu-Link.com,2013-04-26 20:01:00,
2013-04-26 16:16:00,64.0,45.0,30.20,ESE,112,4.7,-999.0,50,-99.99,,,0.00,Acu-Link.com,2013-04-26 20:16:00,
2013-04-26 16:31:00,62.1,43.8,30.21,South,180,4.7,-999.0,51,-99.99,,,0.00,Acu-Link.com,2013-04-26 20:31:00,
2013-04-26 16:46:00,63.3,45.4,30.20,SSE,157,3.2,-999.0,52,-99.99,,,0.00,Acu-Link.com,2013-04-26 20:46:00,
2013-04-26 17:01:00,61.7,44.4,30.18,SSE,157,5.3,-999.0,53,-99.99,,,0.00,Acu-Link.com,2013-04-26 21:01:00,
2013-04-26 17:16:00,61.7,44.4,30.19,ESE,112,3.2,-999.0,53,-99.99,,,0.00,Acu-Link.com,2013-04-26 21:16:00,
2013-04-26 17:32:00,62.4,44.5,30.17,SE,135,3.7,-999.0,52,-99.99,,,0.00,Acu-Link.com,2013-04-26 21:32:00,
2013-04-26 17:47:00,64.2,46.2,30.20,SSE,157,4.7,-999.0,52,-99.99,,,0.00,Acu-Link.com,2013-04-26 21:47:00,
2013-04-26 18:02:00,64.4,46.9,30.20,SE,135,3.7,-999.0,53,-99.99,,,0.00,Acu-Link.com,2013-04-26 22:02:00,
2013-04-26 18:17:00,62.1,44.3,30.20,ESE,112,6.8,-999.0,52,-99.99,,,0.00,Acu-Link.com,2013-04-26 22:17:00,
2013-04-26 18:32:00,60.4,45.1,30.21,SE,135,2.2,-999.0,57,-99.99,,,0.00,Acu-Link.com,2013-04-26 22:32:00,
2013-04-26 18:48:00,59.7,44.4,30.21,ESE,112,5.3,-999.0,57,-99.99,,,0.00,Acu-Link.com,2013-04-26 22:48:00,
2013-04-26 19:03:00,59.7,45.8,30.23,SSE,157,2.7,-999.0,60,-99.99,,,0.00,Acu-Link.com,2013-04-26 23:03:00,
2013-04-26 19:18:00,59.5,45.6,30.23,ESE,112,2.7,-999.0,60,-99.99,,,0.00,Acu-Link.com,2013-04-26 23:18:00,
2013-04-26 19:34:00,59.0,46.0,30.23,SSE,157,3.2,-999.0,62,-99.99,,,0.00,Acu-Link.com,2013-04-26 23:34:00,
2013-04-26 19:49:00,57.7,45.2,30.22,SSE,157,1.7,-999.0,63,-99.99,,,0.00,Acu-Link.com,2013-04-26 23:49:00,
2013-04-26 20:19:00,56.3,47.4,30.24,SSE,157,0.0,-999.0,72,-99.99,,,0.00,Acu-Link.com,2013-04-27 00:19:00,
2013-04-26 20:35:00,56.1,44.9,30.24,SSE,157,1.1,-999.0,66,-99.99,,,0.00,Acu-Link.com,2013-04-27 00:35:00,
2013-04-26 20:50:00,55.2,44.4,30.24,East,90,0.0,-999.0,67,-99.99,,,0.00,Acu-Link.com,2013-04-27 00:50:00,
2013-04-26 21:05:00,55.0,46.1,30.24,ESE,112,1.7,-999.0,72,-99.99,,,0.00,Acu-Link.com,2013-04-27 01:05:00,
2013-04-26 21:21:00,55.0,45.4,30.24,ENE,67,1.1,-999.0,70,-99.99,,,0.00,Acu-Link.com,2013-04-27 01:21:00,
2013-04-26 21:36:00,55.0,46.1,30.23,East,90,0.0,-999.0,72,-99.99,,,0.00,Acu-Link.com,2013-04-27 01:36:00,
2013-04-26 21:51:00,55.0,45.8,30.23,East,90,0.0,-999.0,71,-99.99,,,0.00,Acu-Link.com,2013-04-27 01:51:00,
2013-04-26 22:06:00,54.9,48.2,30.22,ESE,112,2.2,-999.0,78,-99.99,,,0.00,Acu-Link.com,2013-04-27 02:06:00,
2013-04-26 22:22:00,55.0,47.2,30.20,ESE,112,0.0,-999.0,75,-99.99,,,0.00,Acu-Link.com,2013-04-27 02:22:00,
2013-04-26 22:37:00,54.5,47.4,30.23,NE,45,0.0,-999.0,77,-99.99,,,0.00,Acu-Link.com,2013-04-27 02:37:00,
2013-04-26 23:08:00,54.1,47.4,30.21,ESE,112,2.7,-999.0,78,-99.99,,,0.00,Acu-Link.com,2013-04-27 03:08:00,
2013-04-26 23:23:00,53.8,46.4,30.21,SSE,157,2.2,-999.0,76,-99.99,,,0.00,Acu-Link.com,2013-04-27 03:23:00,
2013-04-26 23:38:00,53.6,45.2,30.24,SSE,157,2.2,-999.0,73,-99.99,,,0.00,Acu-Link.com,2013-04-27 03:38:00,
2013-04-26 23:53:00,53.6,45.5,30.23,SSE,157,1.1,-999.0,74,-99.99,,,0.00,Acu-Link.com,2013-04-27 03:53:00,